Salol, Minnesota
Current Conditions -  °F | °C
As of 8:54 AM on Saturday 20 Dec 2014 (Local Time) from KROX Reporting Station
Haze Haze  
Wind Chill: 25°   Ceiling: 700
Heat Index: 30°   Visibility: 3mi
Dew Point: 25°   Wind: 5mph
Humidity: 80%   Direction: 190°S
Pressure: 30.01"   Gusts: NA
Location:  48.87°N, 95.57°W
Report Text: KROX 201454Z AUTO 19004KT 3SM HZ OVC007 M01/M04 A3001 RMK AO2
Loading
Personal Weather Stations






























Interactive Weather Map New forecast layout! Learn more

10-Day Weather Forecast

Advertisements
Track Severe Weather on mobile